Time;durP1;ratioP1;P1;durP2;ratioP2;P2;SDS_P1;SDS_P2;PMS_P1;PMS_P2;Temp;Humidity;BMP_temperature;BMP_pressure;BME280_temperature;BME280_humidity;BME280_pressure;Samples;Min_cycle;Max_cycle;Signal;HPM_P1;HPM_P2
2022/11/09 00:00:50;;;;;;;2.08;1.02;;;15.20;99.90;;;15.38;100.00;100189.50;5145731;28;20150;-75
2022/11/09 00:03:22;;;;;;;1.65;1.15;;;15.20;99.90;;;15.36;100.00;100192.13;5145783;28;20042;-75
2022/11/09 00:05:56;;;;;;;1.65;1.00;;;15.20;99.90;;;15.35;100.00;100200.00;5146162;28;20131;-75
2022/11/09 00:08:28;;;;;;;2.33;1.00;;;15.20;99.90;;;15.34;100.00;100195.63;5147087;28;20046;-75
2022/11/09 00:11:04;;;;;;;1.20;1.00;;;15.20;99.90;;;15.35;100.00;100203.50;5145295;28;20138;-73
2022/11/09 00:13:38;;;;;;;1.50;0.90;;;15.20;99.90;;;15.36;100.00;100194.75;5146692;28;20046;-75
2022/11/09 00:16:14;;;;;;;3.80;1.13;;;15.20;99.90;;;15.35;100.00;100198.22;5146722;28;20149;-73
2022/11/09 00:18:47;;;;;;;2.70;1.10;;;15.20;99.90;;;15.35;100.00;100198.22;5146672;28;20053;-74
2022/11/09 00:21:21;;;;;;;1.42;1.10;;;15.20;99.90;;;15.34;100.00;100187.72;5146544;28;20078;-74
2022/11/09 00:23:54;;;;;;;2.25;0.93;;;15.20;99.90;;;15.35;100.00;100187.72;5145305;28;20150;-76
2022/11/09 00:26:27;;;;;;;1.55;0.90;;;15.20;99.90;;;15.35;100.00;100192.13;5145272;28;20047;-75
2022/11/09 00:28:59;;;;;;;1.40;0.98;;;15.20;99.90;;;15.35;100.00;100198.22;5145671;28;20408;-75
2022/11/09 00:31:32;;;;;;;1.10;0.80;;;15.10;99.90;;;15.34;100.00;100203.50;5145222;28;20047;-74
2022/11/09 00:34:04;;;;;;;1.17;1.02;;;15.10;99.90;;;15.35;100.00;100200.88;5145409;28;20062;-75
2022/11/09 00:36:36;;;;;;;1.80;1.15;;;15.20;99.90;;;15.37;100.00;100193.00;5145199;28;20047;-76
2022/11/09 00:39:09;;;;;;;1.33;0.98;;;15.20;99.90;;;15.36;100.00;100194.75;5146490;28;20057;-75
2022/11/09 00:41:41;;;;;;;1.88;0.93;;;15.20;99.90;;;15.37;100.00;100204.38;5146714;28;20043;-76
2022/11/09 00:44:13;;;;;;;0.80;0.80;;;15.20;99.90;;;15.37;100.00;100196.50;5146335;28;20117;-76
2022/11/09 00:46:46;;;;;;;1.27;1.00;;;15.20;99.90;;;15.37;100.00;100190.38;5145005;28;20149;-75
2022/11/09 00:49:19;;;;;;;2.67;0.90;;;15.20;99.90;;;15.35;100.00;100187.72;5144765;28;20082;-76
2022/11/09 00:51:52;;;;;;;1.92;1.00;;;15.20;99.90;;;15.37;100.00;100185.09;5146109;28;20547;-75
2022/11/09 00:54:24;;;;;;;0.98;0.90;;;15.20;99.90;;;15.37;100.00;100201.75;5144942;28;20538;-75
2022/11/09 00:56:57;;;;;;;2.28;1.27;;;15.10;99.90;;;15.36;100.00;100205.25;5144930;28;20091;-75
2022/11/09 00:59:29;;;;;;;1.50;0.93;;;15.10;99.90;;;15.36;100.00;100200.00;5144585;28;20053;-75
2022/11/09 01:02:02;;;;;;;2.20;1.10;;;15.10;99.90;;;15.35;100.00;100207.88;5144469;28;20038;-75
2022/11/09 01:04:35;;;;;;;3.08;1.25;;;15.10;99.90;;;15.36;100.00;100205.25;5146052;28;20492;-75
2022/11/09 01:07:08;;;;;;;2.40;1.20;;;15.20;99.90;;;15.34;100.00;100209.63;5145859;28;20388;-74
2022/11/09 01:09:40;;;;;;;2.88;1.02;;;15.10;99.90;;;15.32;100.00;100202.56;5145676;28;20478;-76
2022/11/09 01:12:12;;;;;;;1.40;0.82;;;15.10;99.90;;;15.32;100.00;100207.84;5145458;28;20050;-74
2022/11/09 01:14:45;;;;;;;1.00;0.80;;;15.10;99.90;;;15.30;100.00;100204.31;5144611;28;20055;-76
2022/11/09 01:17:18;;;;;;;2.17;1.00;;;15.10;99.90;;;15.30;100.00;100206.94;5145401;28;20051;-75
2022/11/09 01:19:52;;;;;;;1.27;0.90;;;15.10;99.90;;;15.28;100.00;100206.94;5144613;28;20039;-75
2022/11/09 01:22:24;;;;;;;1.48;1.00;;;15.10;99.90;;;15.28;100.00;100212.19;5144222;28;20051;-76
2022/11/09 01:24:56;;;;;;;1.70;1.10;;;15.10;99.90;;;15.27;100.00;100210.44;5144249;28;20057;-75
2022/11/09 01:27:30;;;;;;;2.15;0.95;;;15.10;99.90;;;15.26;100.00;100203.44;5145241;28;20121;-77
2022/11/09 01:30:03;;;;;;;2.60;0.98;;;15.10;99.90;;;15.28;100.00;100213.94;5144106;28;20043;-75
2022/11/09 01:32:39;;;;;;;2.67;1.20;;;15.10;99.90;;;15.28;100.00;100214.81;5144285;28;20415;-77
2022/11/09 01:35:11;;;;;;;1.40;0.90;;;15.10;99.90;;;15.31;100.00;100212.19;5145547;28;20051;-75
2022/11/09 01:37:43;;;;;;;2.55;1.00;;;15.10;99.90;;;15.31;100.00;100212.19;5143710;28;20071;-76
2022/11/09 01:40:16;;;;;;;1.23;0.90;;;15.10;99.90;;;15.33;100.00;100204.38;5142724;28;20051;-77
2022/11/09 01:42:48;;;;;;;2.10;1.00;;;15.10;99.90;;;15.34;100.00;100201.75;5143912;28;20500;-76
2022/11/09 01:45:30;;;;;;;2.17;0.90;;;15.10;99.90;;;15.34;100.00;100193.88;5143853;28;20058;-76
2022/11/09 01:48:10;;;;;;;0.93;0.77;;;15.10;99.90;;;15.36;100.00;100194.75;5145207;28;20247;-76
2022/11/09 01:50:49;;;;;;;1.20;0.93;;;15.20;99.90;;;15.37;100.00;100196.50;5143648;28;20223;-75
2022/11/09 01:53:29;;;;;;;1.50;0.90;;;15.20;99.90;;;15.39;100.00;100196.53;5144129;28;20160;-75
2022/11/09 01:56:06;;;;;;;2.25;1.00;;;15.20;99.90;;;15.39;100.00;100189.53;5145137;28;20042;-75
2022/11/09 01:58:44;;;;;;;1.05;0.85;;;15.20;99.90;;;15.39;100.00;100200.03;5143609;28;20375;-76
2022/11/09 02:01:18;;;;;;;2.85;1.00;;;15.20;99.90;;;15.36;100.00;100192.13;5144097;28;20043;-75
2022/11/09 02:03:57;;;;;;;2.50;1.00;;;15.20;99.90;;;15.35;100.00;100190.34;5144999;28;20582;-77
2022/11/09 02:06:31;;;;;;;2.65;0.82;;;15.20;99.90;;;15.35;100.00;100187.72;5143532;28;20182;-74
2022/11/09 02:09:13;;;;;;;1.23;0.80;;;15.20;99.90;;;15.35;100.00;100192.13;5143315;28;20134;-76
2022/11/09 02:11:45;;;;;;;2.10;0.75;;;15.20;99.90;;;15.33;100.00;100205.25;5143098;28;20047;-75
2022/11/09 02:14:20;;;;;;;0.88;0.63;;;15.10;99.90;;;15.30;100.00;100205.19;5144376;28;20042;-75
2022/11/09 02:16:54;;;;;;;1.52;0.90;;;15.10;99.90;;;15.28;100.00;100201.69;5143307;28;20039;-75
2022/11/09 02:19:28;;;;;;;2.65;0.90;;;15.10;99.90;;;15.26;100.00;100198.19;5143223;28;20050;-76
2022/11/09 02:22:03;;;;;;;0.77;0.75;;;15.10;99.90;;;15.24;100.00;100205.16;5143069;28;20050;-75
2022/11/09 02:24:37;;;;;;;0.98;0.75;;;15.10;99.90;;;15.24;100.00;100209.53;5143102;28;20146;-76
2022/11/09 02:27:10;;;;;;;1.20;0.90;;;15.00;99.90;;;15.21;100.00;100210.41;5142751;28;20047;-75
2022/11/09 02:29:45;;;;;;;1.60;0.80;;;15.10;99.90;;;15.21;100.00;100205.16;5143104;28;20054;-74
2022/11/09 02:32:20;;;;;;;;;;;15.00;99.90;;;15.18;100.00;100208.63;5144431;28;20034;-74
2022/11/09 02:34:53;;;;;;;0.90;0.65;;;15.00;99.90;;;15.15;100.00;100203.38;5142729;28;19926;-75
2022/11/09 02:37:36;;;;;;;2.17;0.90;;;15.00;99.90;;;15.12;100.00;100190.19;5142682;28;20046;-76
2022/11/09 02:40:16;;;;;;;1.83;1.30;;;15.00;99.90;;;15.12;100.00;100199.81;5144304;28;20085;-76
2022/11/09 02:42:48;;;;;;;1.23;0.98;;;14.90;99.90;;;15.10;100.00;100193.69;5144342;28;20122;-75
2022/11/09 02:45:20;;;;;;;1.33;0.80;;;14.90;99.90;;;15.07;100.00;100197.19;5142986;28;20054;-75
2022/11/09 02:47:52;;;;;;;1.75;0.70;;;14.90;99.90;;;15.05;100.00;100198.91;5143948;28;20066;-76
2022/11/09 02:50:25;;;;;;;1.58;0.90;;;14.90;99.90;;;15.04;100.00;100204.16;5143966;28;20552;-75
2022/11/09 02:52:59;;;;;;;1.25;0.90;;;14.90;99.90;;;15.02;100.00;100192.78;5142439;28;20082;-75
2022/11/09 02:55:31;;;;;;;1.83;0.70;;;14.80;99.90;;;15.02;100.00;100190.16;5143929;28;20039;-75
2022/11/09 02:58:04;;;;;;;1.30;0.88;;;14.90;99.90;;;15.02;100.00;100187.53;5143011;28;20042;-76
2022/11/09 03:00:36;;;;;;;3.30;1.00;;;14.90;99.90;;;14.99;100.00;100188.34;5142412;28;20054;-75
2022/11/09 03:03:09;;;;;;;1.35;0.80;;;14.80;99.90;;;14.98;100.00;100190.97;5142268;28;20053;-76
2022/11/09 03:05:42;;;;;;;2.72;1.10;;;14.80;99.90;;;14.97;100.00;100190.09;5142628;28;20061;-76
2022/11/09 03:08:17;;;;;;;2.60;1.13;;;14.80;99.90;;;15.00;100.00;100194.50;5143016;28;20050;-76
2022/11/09 03:10:50;;;;;;;1.85;1.15;;;14.80;99.90;;;14.96;100.00;100193.59;5143041;28;20303;-76
2022/11/09 03:13:23;;;;;;;4.10;1.30;;;14.80;99.90;;;14.97;100.00;100194.47;5142525;28;20518;-76
2022/11/09 03:15:56;;;;;;;1.77;1.00;;;14.80;99.90;;;14.99;100.00;100195.34;5142268;28;20046;-76
2022/11/09 03:18:28;;;;;;;2.13;1.20;;;14.80;99.90;;;14.99;100.00;100193.59;5132650;28;20561;-76
2022/11/09 03:21:05;;;;;;;3.20;1.20;;;14.80;99.90;;;14.99;100.00;100205.84;5155948;28;20126;-74
2022/11/09 03:23:39;;;;;;;3.17;1.50;;;14.80;99.90;;;14.98;100.00;100206.72;5162359;28;20050;-74
2022/11/09 03:26:12;;;;;;;3.92;1.20;;;14.80;99.90;;;14.98;100.00;100201.47;5162348;28;20050;-76
2022/11/09 03:28:44;;;;;;;1.95;1.02;;;14.80;99.90;;;14.99;100.00;100213.72;5161571;28;20039;-75
2022/11/09 03:31:16;;;;;;;4.20;1.13;;;14.80;99.90;;;14.99;100.00;100211.97;5160716;28;20050;-75
2022/11/09 03:33:50;;;;;;;1.75;1.10;;;14.80;99.90;;;14.98;100.00;100207.59;5160582;28;20066;-75
2022/11/09 03:36:23;;;;;;;1.45;0.98;;;14.80;99.90;;;14.97;100.00;100208.47;5162606;28;20038;-75
2022/11/09 03:38:57;;;;;;;1.92;1.15;;;14.80;99.90;;;14.97;100.00;100205.84;5161431;28;20102;-75
2022/11/09 03:41:29;;;;;;;1.08;0.90;;;14.80;99.90;;;14.96;100.00;100214.59;5162488;28;20053;-76
2022/11/09 03:44:01;;;;;;;1.77;1.20;;;14.80;99.90;;;14.95;100.00;100214.59;5161873;28;20148;-75
2022/11/09 03:46:34;;;;;;;2.55;0.90;;;14.80;99.90;;;14.95;100.00;100217.22;5162596;28;20058;-75
2022/11/09 03:49:06;;;;;;;2.50;1.02;;;14.80;99.90;;;14.95;100.00;100212.84;5164159;28;20048;-75
2022/11/09 03:51:38;;;;;;;2.65;1.30;;;14.80;99.90;;;14.95;100.00;100223.34;5162689;28;20053;-74
2022/11/09 03:54:11;;;;;;;2.03;1.00;;;14.80;99.90;;;14.95;100.00;100217.22;5162703;28;20043;-75
2022/11/09 03:56:44;;;;;;;1.80;0.80;;;14.80;99.90;;;14.95;100.00;100223.34;5164044;28;20046;-75
2022/11/09 03:59:16;;;;;;;4.85;1.05;;;14.80;99.90;;;14.95;100.00;100235.59;5163862;28;20042;-76
2022/11/09 04:01:48;;;;;;;2.42;1.10;;;14.80;99.90;;;14.94;100.00;100237.34;5162739;28;20145;-75
2022/11/09 04:04:20;;;;;;;2.25;0.98;;;14.80;99.90;;;14.93;100.00;100223.34;5165738;28;20415;-75
2022/11/09 04:06:52;;;;;;;1.83;1.02;;;14.80;99.90;;;14.94;100.00;100216.34;5166218;28;20064;-76
2022/11/09 04:09:26;;;;;;;1.48;0.82;;;14.80;99.90;;;14.95;100.00;100225.97;5167686;28;20058;-76
2022/11/09 04:11:59;;;;;;;0.98;0.85;;;14.80;99.90;;;14.96;100.00;100232.09;5167559;28;20042;-75
2022/11/09 04:14:32;;;;;;;3.25;0.95;;;14.80;99.90;;;14.94;100.00;100226.84;5167913;28;20042;-77
2022/11/09 04:17:04;;;;;;;1.40;0.82;;;14.80;99.90;;;14.98;100.00;100232.97;5167401;28;20047;-74
2022/11/09 04:19:37;;;;;;;1.23;0.90;;;14.80;99.90;;;14.97;100.00;100221.59;5167579;28;20046;-74
2022/11/09 04:22:09;;;;;;;1.58;0.88;;;14.80;99.90;;;14.97;100.00;100232.09;5167200;28;20038;-75
2022/11/09 04:24:43;;;;;;;2.60;1.00;;;14.80;99.90;;;14.97;100.00;100225.97;5166459;28;20050;-76
2022/11/09 04:27:15;;;;;;;1.95;0.82;;;14.80;99.90;;;14.99;100.00;100227.72;5166147;28;20042;-77
2022/11/09 04:29:47;;;;;;;1.10;0.90;;;14.80;99.90;;;15.02;100.00;100229.50;5166232;28;20097;-75
2022/11/09 04:32:19;;;;;;;0.70;0.70;;;14.80;99.90;;;15.03;100.00;100231.28;5166906;28;20518;-77
2022/11/09 04:34:52;;;;;;;2.72;1.13;;;14.80;99.90;;;15.02;100.00;100229.50;5165927;28;20045;-75
2022/11/09 04:37:24;;;;;;;3.70;1.02;;;14.80;99.90;;;15.04;100.00;100218.16;5166707;28;20097;-75
2022/11/09 04:39:57;;;;;;;2.78;1.30;;;14.90;99.90;;;15.06;100.00;100220.78;5168075;28;20042;-76
2022/11/09 04:42:29;;;;;;;2.45;1.00;;;14.80;99.90;;;15.06;100.00;100218.16;5168016;28;20047;-75
2022/11/09 04:45:01;;;;;;;2.28;0.93;;;14.80;99.90;;;15.05;100.00;100219.03;5168003;28;20125;-74
2022/11/09 04:47:33;;;;;;;2.72;1.20;;;14.80;99.90;;;15.05;100.00;100222.53;5167637;28;20038;-76
2022/11/09 04:50:07;;;;;;;1.50;0.80;;;14.80;99.90;;;15.05;100.00;100219.03;5166606;28;20581;-75
2022/11/09 04:52:40;;;;;;;1.90;0.90;;;14.90;99.90;;;15.04;100.00;100220.78;5166159;28;20053;-74
2022/11/09 04:55:13;;;;;;;2.15;0.88;;;14.80;99.90;;;15.02;100.00;100213.78;5167751;28;20074;-74
2022/11/09 04:57:45;;;;;;;1.42;0.90;;;14.80;99.90;;;15.02;100.00;100216.41;5165464;28;20058;-75
2022/11/09 05:00:18;;;;;;;1.30;0.80;;;14.80;99.90;;;15.02;100.00;100205.91;5165523;28;20061;-75
2022/11/09 05:02:50;;;;;;;2.03;1.17;;;14.80;99.90;;;15.02;100.00;100213.78;5166794;28;20467;-75
2022/11/09 05:05:22;;;;;;;2.83;1.00;;;14.80;99.90;;;15.01;100.00;100217.25;5166989;28;20123;-74
2022/11/09 05:07:54;;;;;;;2.22;1.10;;;14.80;99.90;;;15.02;100.00;100224.25;5165622;28;20499;-77
2022/11/09 05:10:28;;;;;;;2.22;0.98;;;14.80;99.90;;;14.96;100.00;100217.22;5166898;28;20046;-75
2022/11/09 05:13:01;;;;;;;3.33;1.15;;;14.80;99.90;;;14.93;100.00;100220.72;5166393;28;20042;-76
2022/11/09 05:15:34;;;;;;;2.47;1.00;;;14.80;99.90;;;14.90;100.00;100228.53;5166543;28;20052;-76
2022/11/09 05:18:07;;;;;;;1.50;1.00;;;14.80;99.90;;;14.91;100.00;100227.66;5165536;28;20575;-76
2022/11/09 05:26:16;;;;;;;4.35;2.10;;;14.80;99.90;;;14.91;100.00;100217.16;5152475;28;20521;-69
2022/11/09 05:28:49;;;;;;;4.30;2.00;;;14.80;99.90;;;14.92;100.00;100220.69;5165081;28;20361;-69
2022/11/09 05:31:22;;;;;;;2.15;1.20;;;14.80;99.90;;;14.92;100.00;100213.69;5163944;28;20049;-69
2022/11/09 05:33:55;;;;;;;3.70;1.50;;;14.80;99.90;;;14.93;100.00;100220.72;5165087;28;20061;-68
2022/11/09 05:36:29;;;;;;;3.28;1.65;;;14.80;99.90;;;14.93;100.00;100233.84;5165301;28;20038;-68
2022/11/09 05:39:01;;;;;;;3.75;1.70;;;14.80;99.90;;;14.96;100.00;100222.47;5165015;28;20047;-68
2022/11/09 05:41:35;;;;;;;4.05;1.42;;;14.80;99.90;;;14.97;100.00;100226.84;5165162;28;20065;-70
2022/11/09 05:44:09;;;;;;;2.33;1.50;;;14.80;99.90;;;14.95;100.00;100219.84;5165376;28;20128;-68
2022/11/09 05:46:43;;;;;;;1.27;1.17;;;14.80;99.90;;;14.98;100.00;100235.59;5164972;28;20046;-68
2022/11/09 05:49:16;;;;;;;1.60;1.10;;;14.80;99.90;;;14.98;100.00;100238.22;5164826;28;20097;-68
2022/11/09 05:51:49;;;;;;;3.17;1.67;;;14.80;99.90;;;14.94;100.00;100234.72;5164703;28;20514;-67
2022/11/09 05:54:21;;;;;;;2.40;1.38;;;14.80;99.90;;;14.94;100.00;100239.97;5164591;28;20048;-68
2022/11/09 05:56:55;;;;;;;2.55;1.25;;;14.80;99.90;;;14.92;100.00;100234.66;5165116;28;20078;-68
2022/11/09 05:59:28;;;;;;;2.35;1.30;;;14.80;99.90;;;14.91;100.00;100238.16;5164991;28;20126;-68
2022/11/09 06:02:00;;;;;;;3.85;1.10;;;14.70;99.90;;;14.89;100.00;100234.66;5164680;28;20038;-68
2022/11/09 06:04:34;;;;;;;3.88;1.10;;;14.80;99.90;;;14.88;100.00;100240.78;5164631;28;20056;-69
2022/11/09 06:07:06;;;;;;;1.77;0.98;;;14.70;99.90;;;14.85;100.00;100243.34;5163783;28;20046;-68
2022/11/09 06:09:38;;;;;;;2.75;1.10;;;14.70;99.90;;;14.83;100.00;100239.84;5164546;28;20045;-69
2022/11/09 06:12:12;;;;;;;2.30;1.00;;;14.70;99.90;;;14.81;100.00;100236.34;5164650;28;20045;-67
2022/11/09 06:14:44;;;;;;;1.92;1.00;;;14.70;99.90;;;14.81;100.00;100245.97;5163026;28;20140;-68
2022/11/09 06:17:16;;;;;;;2.13;1.00;;;14.60;99.90;;;14.80;100.00;100239.84;5163366;28;20050;-67
2022/11/09 06:19:48;;;;;;;1.95;1.23;;;14.70;99.90;;;14.78;100.00;100246.81;5164460;28;20458;-68
2022/11/09 06:22:20;;;;;;;2.75;1.13;;;14.60;99.90;;;14.78;100.00;100236.31;5164578;28;20042;-68
2022/11/09 06:24:52;;;;;;;2.88;1.70;;;14.60;99.90;;;14.76;100.00;100235.41;5163090;28;20545;-68
2022/11/09 06:27:27;;;;;;;1.40;0.95;;;14.60;99.90;;;14.75;100.00;100231.03;5163886;28;20407;-67
2022/11/09 06:30:00;;;;;;;2.15;1.10;;;14.60;99.90;;;14.72;100.00;100235.38;5164120;28;20044;-69
2022/11/09 06:32:33;;;;;;;0.90;0.80;;;14.60;99.90;;;14.69;100.00;100228.38;5164178;28;20044;-68
2022/11/09 06:35:07;;;;;;;1.27;0.90;;;14.60;99.90;;;14.68;100.00;100239.72;5164298;28;20039;-68
2022/11/09 06:37:39;;;;;;;4.85;0.80;;;14.50;99.90;;;14.63;100.00;100230.94;5164455;28;20038;-68
2022/11/09 06:40:13;;;;;;;1.70;1.02;;;14.50;99.90;;;14.61;100.00;100238.78;5164182;28;20511;-70
2022/11/09 06:42:47;;;;;;;1.05;0.80;;;14.50;99.90;;;14.61;100.00;100243.16;5164362;28;20053;-68
2022/11/09 06:45:20;;;;;;;3.47;0.90;;;14.50;99.90;;;14.61;100.00;100243.16;5164437;28;20042;-67
2022/11/09 06:47:56;;;;;;;1.00;0.80;;;14.50;99.90;;;14.62;100.00;100260.66;5163144;28;20050;-70
2022/11/09 06:50:31;;;;;;;1.98;1.02;;;14.50;99.90;;;14.61;100.00;100269.38;5164362;28;20046;-70
2022/11/09 06:53:06;;;;;;;1.55;1.00;;;14.50;99.90;;;14.60;100.00;100268.47;5164617;28;20295;-69
2022/11/09 06:55:38;;;;;;;1.60;0.90;;;14.40;99.90;;;14.61;100.00;100264.16;5164583;28;20430;-68
2022/11/09 06:58:15;;;;;;;2.17;1.00;;;14.50;99.90;;;14.61;100.00;100270.25;5164089;28;20038;-68
2022/11/09 07:00:48;;;;;;;1.42;0.80;;;14.50;99.90;;;14.62;100.00;100265.91;5163990;28;20057;-68
2022/11/09 07:03:22;;;;;;;1.65;0.80;;;14.50;99.90;;;14.64;100.00;100274.66;5164099;28;20049;-66
2022/11/09 07:05:54;;;;;;;2.58;1.10;;;14.50;99.90;;;14.66;100.00;100278.16;5163831;28;20051;-58
2022/11/09 07:08:26;;;;;;;1.38;0.90;;;14.50;99.90;;;14.68;100.00;100281.69;5163469;28;20141;-57
2022/11/09 07:11:04;;;;;;;1.63;1.02;;;14.50;99.90;;;14.69;100.00;100278.22;5163711;28;20050;-57
2022/11/09 07:13:37;;;;;;;1.13;0.80;;;14.50;99.90;;;14.69;100.00;100286.06;5163494;28;20494;-58
2022/11/09 07:16:11;;;;;;;2.25;0.90;;;14.50;99.90;;;14.69;100.00;100290.44;5163618;28;20047;-57
2022/11/09 07:18:44;;;;;;;2.15;0.82;;;14.50;99.90;;;14.71;100.00;100291.34;5163450;28;20046;-58
2022/11/09 07:21:16;;;;;;;2.40;1.00;;;14.60;99.90;;;14.71;100.00;100297.44;5163582;28;20050;-58
2022/11/09 07:23:49;;;;;;;1.45;0.93;;;14.50;99.90;;;14.74;100.00;100294.00;5163574;28;20039;-57
2022/11/09 07:26:21;;;;;;;1.75;0.82;;;14.50;99.90;;;14.74;100.00;100296.63;5163732;28;20050;-60
2022/11/09 07:28:55;;;;;;;2.63;1.00;;;14.60;99.90;;;14.83;100.00;100292.31;5163423;28;20050;-58
2022/11/09 07:31:28;;;;;;;1.73;1.20;;;14.70;99.90;;;14.97;100.00;100294.19;5163385;28;20057;-58
2022/11/09 07:34:03;;;;;;;2.00;0.90;;;14.80;99.90;;;15.07;100.00;100288.19;5163201;28;20073;-61
2022/11/09 07:36:35;;;;;;;2.60;0.80;;;14.90;99.90;;;15.19;100.00;100285.63;5145777;28;20124;-61
2022/11/09 07:39:07;;;;;;;1.70;1.00;;;15.00;99.90;;;15.36;100.00;100294.53;5147060;28;20038;-59
2022/11/09 07:41:40;;;;;;;1.27;0.85;;;15.20;99.90;;;15.44;100.00;100295.44;5147326;28;20133;-59
2022/11/09 07:44:17;;;;;;;1.45;0.90;;;15.30;99.90;;;15.48;100.00;100297.25;5147845;28;20042;-58
2022/11/09 07:46:49;;;;;;;2.78;1.02;;;15.30;99.90;;;15.51;100.00;100303.38;5147259;28;20049;-60
2022/11/09 07:49:21;;;;;;;2.15;0.90;;;15.30;99.90;;;15.54;100.00;100303.41;5146824;28;20057;-61
2022/11/09 07:51:53;;;;;;;1.15;0.93;;;15.40;99.90;;;15.58;100.00;100311.31;5147131;28;20101;-58
2022/11/09 07:54:26;;;;;;;1.50;0.80;;;15.40;99.90;;;15.63;100.00;100321.88;5147154;28;20529;-57
2022/11/09 07:56:58;;;;;;;1.75;1.20;;;15.40;99.90;;;15.68;100.00;100314.91;5146889;28;20046;-60
2022/11/09 07:59:31;;;;;;;1.05;0.90;;;15.50;99.90;;;15.74;100.00;100318.47;5147167;28;20051;-57
2022/11/09 08:02:03;;;;;;;2.00;1.00;;;15.50;99.90;;;15.82;100.00;100326.38;5146922;28;20051;-59
2022/11/09 08:04:35;;;;;;;1.35;0.80;;;15.60;99.90;;;15.87;100.00;100323.81;5147079;28;20054;-60
2022/11/09 08:07:07;;;;;;;1.73;0.90;;;15.60;99.90;;;15.91;100.00;100328.19;5146772;28;20136;-58
2022/11/09 08:09:39;;;;;;;1.73;0.77;;;15.60;99.90;;;15.96;100.00;100323.84;5146215;28;20047;-58
2022/11/09 08:12:11;;;;;;;1.63;0.90;;;15.70;99.90;;;16.01;100.00;100333.50;5146510;28;20043;-58
2022/11/09 08:14:45;;;;;;;1.27;0.93;;;15.70;99.90;;;16.06;100.00;100330.91;5146455;28;20078;-59
2022/11/09 08:17:17;;;;;;;2.22;0.80;;;15.80;99.90;;;16.12;100.00;100336.22;5146522;28;20058;-58
2022/11/09 08:19:49;;;;;;;4.18;0.82;;;15.80;99.90;;;16.19;100.00;100342.38;5147083;28;20391;-58
2022/11/09 08:22:21;;;;;;;2.05;1.00;;;15.90;99.90;;;16.22;100.00;100332.72;5146237;28;20039;-56
2022/11/09 08:24:53;;;;;;;2.63;1.10;;;15.90;99.90;;;16.23;100.00;100333.59;5146557;28;20054;-58
2022/11/09 08:27:25;;;;;;;3.00;1.02;;;16.00;99.90;;;16.24;100.00;100346.78;5146245;28;20055;-56
2022/11/09 08:29:59;;;;;;;2.83;1.25;;;16.00;99.90;;;16.25;100.00;100335.41;5146074;28;20133;-56
2022/11/09 08:32:31;;;;;;;2.90;0.90;;;16.00;99.90;;;16.29;100.00;100354.69;5146027;28;20514;-57
2022/11/09 08:35:05;;;;;;;3.00;0.85;;;16.00;99.90;;;16.36;100.00;100351.19;5146529;28;20045;-56
2022/11/09 08:37:37;;;;;;;1.88;0.68;;;16.10;99.90;;;16.45;100.00;100356.53;5146082;28;20496;-57
2022/11/09 08:40:10;;;;;;;2.47;0.80;;;16.10;99.90;;;16.53;100.00;100351.28;5145966;28;20046;-56
2022/11/09 08:42:43;;;;;;;2.35;0.77;;;16.20;99.90;;;16.64;100.00;100352.19;5161048;28;20766;-58
2022/11/09 08:45:17;;;;;;;1.98;0.70;;;16.30;99.90;;;16.68;100.00;100355.69;5146309;28;20445;-57
2022/11/09 08:47:49;;;;;;;1.13;0.65;;;16.30;99.90;;;16.73;100.00;100351.38;5145796;28;20109;-57
2022/11/09 08:50:21;;;;;;;1.52;0.40;;;16.40;99.90;;;16.84;100.00;100354.03;5145272;28;20069;-57
2022/11/09 08:52:53;;;;;;;2.13;0.90;;;16.40;99.90;;;16.95;100.00;100361.09;5145463;28;20043;-57
2022/11/09 08:55:25;;;;;;;2.28;0.77;;;16.50;99.90;;;17.08;100.00;100360.25;5145688;28;20050;-58
2022/11/09 08:58:01;;;;;;;1.48;1.10;;;16.60;99.90;;;17.16;100.00;100372.53;5145667;28;20057;-57
2022/11/09 09:00:34;;;;;;;2.00;0.98;;;16.70;99.90;;;17.22;100.00;100367.28;5146292;28;20531;-58
2022/11/09 09:03:06;;;;;;;2.70;0.90;;;16.80;99.90;;;17.28;100.00;100368.16;5145867;28;20050;-58
2022/11/09 09:05:39;;;;;;;3.08;0.90;;;16.90;99.90;;;17.26;100.00;100369.88;5145854;28;20047;-56
2022/11/09 09:08:14;;;;;;;3.03;0.75;;;16.90;99.90;;;17.20;100.00;100369.00;5145428;28;20039;-57
2022/11/09 09:10:46;;;;;;;5.07;1.00;;;16.80;99.90;;;17.17;100.00;100369.03;5145837;28;20061;-57
2022/11/09 09:13:21;;;;;;;5.00;1.00;;;16.80;99.90;;;17.20;100.00;100358.47;5146207;28;20268;-57
2022/11/09 09:15:54;;;;;;;1.27;0.70;;;16.80;99.90;;;17.22;100.00;100372.53;5145679;28;20058;-57
2022/11/09 09:18:26;;;;;;;3.60;0.80;;;16.80;99.90;;;17.21;100.00;100361.09;5145238;28;20079;-57
2022/11/09 09:20:58;;;;;;;1.58;0.50;;;16.90;99.90;;;17.16;100.00;100367.28;5145308;28;20414;-57
2022/11/09 09:23:31;;;;;;;1.33;0.80;;;16.80;99.90;;;17.16;100.00;100378.69;5145574;28;20047;-58
2022/11/09 09:26:03;;;;;;;2.33;0.73;;;16.80;99.90;;;17.24;100.00;100378.69;5145440;28;20039;-57
2022/11/09 09:28:35;;;;;;;3.17;0.70;;;16.80;99.90;;;17.41;100.00;100391.84;5145007;28;20439;-58
2022/11/09 09:31:09;;;;;;;1.67;0.60;;;16.90;99.90;;;17.54;99.20;100383.97;5145591;28;20105;-56
2022/11/09 09:33:41;;;;;;;1.30;0.65;;;17.10;99.90;;;17.70;98.48;100395.38;5144906;28;20047;-57
2022/11/09 09:36:17;;;;;;;0.90;0.43;;;17.20;99.90;;;17.87;96.85;100398.91;5145116;28;20065;-56
2022/11/09 09:38:51;;;;;;;4.07;0.63;;;17.30;99.90;;;18.06;95.64;100401.50;5144980;28;20130;-57
2022/11/09 09:41:30;;;;;;;1.17;0.60;;;17.50;99.90;;;18.12;94.04;100401.50;5145737;28;20053;-57
2022/11/09 09:44:16;;;;;;;1.10;0.73;;;17.60;99.90;;;18.08;92.96;100405.91;5144978;28;20053;-57
2022/11/09 09:46:58;;;;;;;1.55;0.70;;;17.60;99.90;;;17.98;92.60;100405.91;5145038;28;20038;-59
2022/11/09 09:49:35;;;;;;;1.73;0.60;;;17.60;99.90;;;17.86;92.90;100405.06;5144370;28;20050;-57
2022/11/09 09:52:18;;;;;;;1.60;0.50;;;17.50;99.90;;;17.79;92.90;100412.97;5143417;28;20530;-62
2022/11/09 09:55:02;;;;;;;1.85;0.50;;;17.40;99.90;;;17.76;93.19;100411.22;5144593;28;20051;-60
2022/11/09 09:57:36;;;;;;;1.88;0.60;;;17.40;99.90;;;17.79;92.90;100413.84;5144720;28;20567;-62
2022/11/09 10:00:19;;;;;;;2.88;0.52;;;17.40;99.90;;;17.86;92.94;100414.72;5143381;28;20058;-60
2022/11/09 10:02:54;;;;;;;1.55;0.57;;;17.40;99.90;;;17.99;94.08;100427.00;5143527;28;20448;-59
2022/11/09 10:05:33;;;;;;;;;;;17.50;99.90;;;18.24;92.52;100421.69;5144328;28;20046;-61
2022/11/09 10:08:10;;;;;;;1.40;0.73;;;17.70;99.90;;;18.42;94.58;100422.53;5143771;28;19929;-61
2022/11/09 10:10:49;;;;;;;2.70;0.70;;;18.00;99.90;;;18.58;88.77;100428.66;5144136;28;20050;-61
2022/11/09 10:13:47;;;;;;;1.05;0.80;;;18.20;99.60;;;18.59;87.51;100433.03;5143886;28;20426;-61
2022/11/09 10:16:25;;;;;;;1.48;0.40;;;18.20;98.90;;;18.64;88.30;100441.78;5144225;28;20386;-61
2022/11/09 10:19:32;;;;;;;1.15;0.50;;;18.30;99.20;;;18.56;84.25;100440.94;5143351;28;20432;-54
2022/11/09 10:22:12;;;;;;;1.90;0.45;;;18.30;97.40;;;18.53;82.32;100434.81;5143904;28;20069;-61
2022/11/09 10:24:53;;;;;;;2.33;0.50;;;18.20;96.60;;;18.44;81.63;100441.00;5144466;28;20476;-63
2022/11/09 10:27:35;;;;;;;1.17;0.50;;;18.10;96.10;;;18.33;81.79;100437.53;5144605;28;20047;-63
2022/11/09 10:30:14;;;;;;;1.25;0.50;;;18.00;96.10;;;18.30;81.75;100442.78;5143714;28;20038;-61
2022/11/09 10:32:51;;;;;;;0.98;0.45;;;18.00;96.10;;;18.33;81.55;100448.06;5143947;28;20047;-62
2022/11/09 10:35:29;;;;;;;1.55;0.40;;;17.90;96.00;;;18.44;82.35;100441.00;5143987;28;20046;-62
2022/11/09 10:38:02;;;;;;;1.88;0.57;;;18.00;96.30;;;18.62;82.18;100456.78;5143662;28;20043;-62
2022/11/09 10:40:42;;;;;;;0.70;0.65;;;18.10;96.30;;;18.77;81.79;100460.28;5144000;28;20542;-63